Time;durP1;ratioP1;P1;durP2;ratioP2;P2;SDS_P1;SDS_P2;PMS_P1;PMS_P2;Temp;Humidity;BMP_temperature;BMP_pressure;BME280_temperature;BME280_humidity;BME280_pressure;Samples;Min_cycle;Max_cycle;Signal;HPM_P1;HPM_P2
2022/11/10 00:00:23;;;;;;;12.13;7.53;;;;;;;11.66;92.65;101399.75;5013346;28;20258;-78
2022/11/10 00:03:08;;;;;;;11.30;7.20;;;;;;;11.60;92.87;101399.59;5016992;28;20739;-78
2022/11/10 00:05:52;;;;;;;13.33;7.03;;;;;;;11.57;92.90;101402.06;5010763;28;20199;-78
2022/11/10 00:08:36;;;;;;;15.90;8.10;;;;;;;11.55;93.53;101406.28;5013716;28;20245;-77
2022/11/10 00:11:20;;;;;;;15.57;8.20;;;;;;;11.52;93.60;101408.78;5017229;28;20326;-78
2022/11/10 00:17:11;;;;;;;12.87;7.97;;;;;;;11.47;93.58;101407.81;5013295;28;20925;-77
2022/11/10 00:19:55;;;;;;;15.40;7.47;;;;;;;11.47;93.89;101413.78;5014300;28;20198;-77
2022/11/10 00:22:40;;;;;;;10.97;7.93;;;;;;;11.44;94.05;101413.72;5016999;28;20726;-77
2022/11/10 00:25:26;;;;;;;12.77;7.53;;;;;;;11.43;93.88;101421.38;5016730;28;20226;-76
2022/11/10 00:28:10;;;;;;;13.67;7.23;;;;;;;11.40;94.17;101427.28;5015076;28;20206;-77
2022/11/10 00:30:54;;;;;;;14.43;8.73;;;;;;;11.40;94.40;101437.56;5016835;28;20288;-77
2022/11/10 00:33:40;;;;;;;13.13;8.50;;;;;;;11.44;94.23;101435.94;5014464;28;20214;-77
2022/11/10 00:36:24;;;;;;;16.23;8.90;;;;;;;11.45;94.67;101435.09;5009344;28;20202;-77
2022/11/10 00:39:09;;;;;;;16.17;8.30;;;;;;;11.44;94.23;101443.63;5012023;28;20245;-77
2022/11/10 00:41:53;;;;;;;17.27;8.70;;;;;;;11.47;94.05;101443.72;5012804;28;20213;-77
2022/11/10 00:44:37;;;;;;;9.20;7.43;;;;;;;11.50;94.04;101452.34;5016484;28;20253;-77
2022/11/10 00:47:21;;;;;;;9.67;8.03;;;;;;;11.54;93.61;101454.16;5014846;28;20261;-77
2022/11/10 00:50:06;;;;;;;13.77;7.67;;;;;;;11.55;93.35;101455.00;5017170;28;20182;-77
2022/11/10 00:52:50;;;;;;;9.03;6.90;;;;;;;11.53;93.09;101447.25;5011820;28;20194;-76
2022/11/10 00:55:39;;;;;;;14.40;8.53;;;;;;;11.52;93.25;101454.94;5015150;28;20202;-77
2022/11/10 00:58:23;;;;;;;13.53;6.70;;;;;;;11.47;93.21;101454.81;5013004;28;20202;-77
2022/11/10 01:01:08;;;;;;;12.37;7.00;;;;;;;11.43;93.23;101462.41;5009698;28;20226;-77
2022/11/10 01:03:53;;;;;;;14.27;7.17;;;;;;;11.38;93.28;101457.16;5013382;28;20305;-77
2022/11/10 01:06:37;;;;;;;11.93;6.30;;;;;;;11.34;93.83;101462.16;5013522;28;20616;-76
2022/11/10 01:09:22;;;;;;;9.33;6.13;;;;;;;11.31;93.43;101470.66;5012275;28;20238;-77
2022/11/10 01:12:06;;;;;;;12.23;6.33;;;;;;;11.33;93.81;101474.09;5013969;28;20197;-77
2022/11/10 01:14:49;;;;;;;10.93;6.40;;;;;;;11.29;93.80;101477.41;5016090;28;20698;-77
2022/11/10 01:17:34;;;;;;;12.27;5.10;;;;;;;11.27;93.61;101483.31;5015366;28;20683;-77
2022/11/10 01:20:18;;;;;;;13.53;5.47;;;;;;;11.24;93.81;101479.00;5010806;28;20273;-77
2022/11/10 01:23:03;;;;;;;11.70;5.60;;;;;;;11.21;94.07;101491.75;5013671;28;20266;-77
2022/11/10 01:25:47;;;;;;;11.67;5.50;;;;;;;11.18;94.53;101488.22;5013566;28;20218;-76
2022/11/10 01:28:32;;;;;;;12.57;5.53;;;;;;;11.11;94.56;101497.41;5010544;28;20302;-76
2022/11/10 01:31:19;;;;;;;9.63;5.30;;;;;;;11.08;94.91;101496.47;5007610;28;20214;-76
2022/11/10 01:34:03;;;;;;;10.40;5.23;;;;;;;11.09;94.84;101500.78;5014332;28;20233;-77
2022/11/10 01:36:47;;;;;;;12.20;5.30;;;;;;;11.05;95.08;101510.06;5013230;28;20615;-76
2022/11/10 01:39:31;;;;;;;12.53;4.93;;;;;;;11.02;94.82;101514.25;5010335;28;20261;-77
2022/11/10 01:42:22;;;;;;;14.10;5.00;;;;;;;11.01;94.92;101515.94;5005141;28;20261;-76
2022/11/10 01:45:29;;;;;;;12.20;4.60;;;;;;;10.97;94.83;101520.94;5006482;28;20225;-77
2022/11/10 01:48:18;;;;;;;15.37;5.37;;;;;;;10.99;94.66;101529.53;5007465;28;20694;-77
2022/11/10 01:51:18;;;;;;;10.00;5.13;;;;;;;10.96;94.80;101530.31;5014000;28;20309;-77
2022/11/10 01:54:06;;;;;;;10.50;4.53;;;;;;;10.96;94.76;101537.16;5014107;28;20249;-77
2022/11/10 01:56:56;;;;;;;13.37;5.40;;;;;;;10.92;94.84;101538.72;5015522;28;20210;-76
2022/11/10 01:59:46;;;;;;;8.53;4.97;;;;;;;10.86;95.06;101537.69;5015336;28;20205;-78
2022/11/10 02:02:54;;;;;;;14.97;5.17;;;;;;;10.83;94.87;101537.63;5012949;28;20263;-77
2022/11/10 02:05:39;;;;;;;8.87;4.63;;;;;;;10.80;95.25;101540.97;5014670;28;20218;-77
2022/11/10 02:08:24;;;;;;;10.37;5.33;;;;;;;10.79;94.94;101551.16;5011494;28;20194;-77
2022/11/10 02:11:08;;;;;;;10.97;5.47;;;;;;;10.75;95.61;101557.88;5016019;28;20661;-77
2022/11/10 02:13:53;;;;;;;9.63;5.57;;;;;;;10.73;95.17;101559.50;5014340;28;20277;-77
2022/11/10 02:16:38;;;;;;;11.10;5.57;;;;;;;10.70;95.12;101561.13;5011930;28;20206;-77
2022/11/10 02:19:25;;;;;;;11.17;5.13;;;;;;;10.67;95.79;101563.59;5008863;28;20206;-77
2022/11/10 02:22:09;;;;;;;14.77;6.27;;;;;;;10.64;95.96;101556.69;5012313;28;20789;-76
2022/11/10 02:24:53;;;;;;;12.20;6.23;;;;;;;10.63;95.92;101562.63;5015173;28;20589;-77
2022/11/10 02:27:37;;;;;;;13.33;5.80;;;;;;;10.57;96.01;101564.13;5015698;28;20214;-77
2022/11/10 02:30:21;;;;;;;12.33;6.53;;;;;;;10.56;95.78;101568.38;5011820;28;20218;-77
2022/11/10 02:33:05;;;;;;;12.87;6.70;;;;;;;10.55;96.03;101574.31;5014967;28;20202;-77
2022/11/10 02:35:49;;;;;;;11.53;6.73;;;;;;;10.54;95.69;101581.94;5014641;28;20328;-76
2022/11/10 02:38:33;;;;;;;12.23;6.43;;;;;;;10.52;96.10;101578.47;5011395;28;20206;-77
2022/11/10 02:41:16;;;;;;;17.30;7.77;;;;;;;10.49;96.31;101588.63;5015023;28;20206;-77
2022/11/10 02:44:03;;;;;;;13.77;7.33;;;;;;;10.49;96.48;101586.06;5015608;28;20818;-77
2022/11/10 02:46:47;;;;;;;10.33;7.30;;;;;;;10.47;96.63;101591.13;5015992;28;20668;-77
2022/11/10 02:49:31;;;;;;;12.13;7.83;;;;;;;10.46;96.20;101593.66;5014115;28;20218;-77
2022/11/10 02:52:15;;;;;;;15.33;8.10;;;;;;;10.46;96.34;101601.34;5017758;28;20279;-76
2022/11/10 02:54:59;;;;;;;19.20;8.97;;;;;;;10.45;96.62;101599.59;5017472;28;20214;-77
2022/11/10 02:57:43;;;;;;;17.23;9.23;;;;;;;10.45;97.13;101602.13;5016091;28;20592;-77
2022/11/10 03:00:27;;;;;;;16.70;9.10;;;;;;;10.41;97.05;101598.63;5015005;28;20205;-78
2022/11/10 03:03:11;;;;;;;16.97;9.53;;;;;;;10.39;97.05;101586.59;5018491;28;20287;-77
2022/11/10 03:05:55;;;;;;;17.67;9.43;;;;;;;10.36;96.82;101609.53;5016218;28;20222;-77
2022/11/10 03:08:39;;;;;;;19.17;11.23;;;;;;;10.39;97.25;101607.97;5019465;28;20201;-77
2022/11/10 03:11:24;;;;;;;14.07;9.83;;;;;;;10.37;97.13;101609.56;5019087;28;20213;-77
2022/11/10 03:14:08;;;;;;;18.50;10.33;;;;;;;10.36;96.97;101614.63;5017929;28;20305;-77
2022/11/10 03:16:52;;;;;;;18.03;11.47;;;;;;;10.38;97.34;101615.59;5017167;28;20206;-77
2022/11/10 03:19:36;;;;;;;20.07;10.43;;;;;;;10.37;96.91;101611.28;5017721;28;20206;-77
2022/11/10 03:22:20;;;;;;;18.13;10.53;;;;;;;10.38;96.99;101615.59;5014849;28;20210;-77
2022/11/10 03:25:05;;;;;;;18.00;10.67;;;;;;;10.38;97.00;101625.81;5016409;28;20288;-77
2022/11/10 03:27:49;;;;;;;17.83;10.27;;;;;;;10.33;97.04;101632.47;5010345;28;20202;-77
2022/11/10 03:30:34;;;;;;;16.33;10.60;;;;;;;10.28;96.75;101634.88;5019332;28;20272;-77
2022/11/10 03:33:18;;;;;;;20.00;10.23;;;;;;;10.25;97.36;101642.47;5017561;28;20230;-78
2022/11/10 03:36:02;;;;;;;18.97;10.47;;;;;;;10.25;97.53;101649.28;5020456;28;20202;-77
2022/11/10 03:38:46;;;;;;;20.87;11.17;;;;;;;10.17;97.53;101656.69;5018146;28;20206;-77
2022/11/10 03:41:30;;;;;;;16.40;10.53;;;;;;;10.26;97.51;101658.69;5019026;28;20201;-78
2022/11/10 03:44:14;;;;;;;14.97;9.73;;;;;;;10.26;98.01;101661.25;5017790;28;20230;-77
2022/11/10 03:46:58;;;;;;;18.13;10.37;;;;;;;10.24;97.86;101660.34;5017441;28;20249;-77
2022/11/10 03:49:42;;;;;;;19.60;10.37;;;;;;;10.22;97.63;101654.28;5017231;28;20249;-77
2022/11/10 03:52:26;;;;;;;19.67;10.60;;;;;;;10.22;97.40;101667.94;5014862;28;20565;-77
2022/11/10 03:55:12;;;;;;;18.57;11.40;;;;;;;10.20;97.54;101664.50;5018624;28;20221;-78
2022/11/10 03:58:02;;;;;;;21.07;11.37;;;;;;;10.20;97.64;101666.16;5018165;28;20194;-76
2022/11/10 04:00:46;;;;;;;22.47;11.40;;;;;;;10.22;98.20;101667.94;5019545;28;20249;-77
2022/11/10 04:03:30;;;;;;;22.63;11.30;;;;;;;10.24;97.44;101665.44;5018658;28;20229;-77
2022/11/10 04:09:17;;;;;;;22.80;11.10;;;;;;;10.31;97.77;101668.25;5019701;28;20244;-77
2022/11/10 04:18:25;;;;;;;20.73;12.07;;;;;;;10.45;97.53;101684.97;5018278;28;20321;-76
2022/11/10 04:21:11;;;;;;;21.73;12.53;;;;;;;10.48;97.39;101691.88;5010895;28;20248;-77
2022/11/10 04:23:55;;;;;;;20.77;12.17;;;;;;;10.55;97.16;101697.22;5016578;28;20222;-77
2022/11/10 04:26:41;;;;;;;20.57;11.83;;;;;;;10.60;97.13;101707.66;5016214;28;20237;-76
2022/11/10 04:29:25;;;;;;;22.60;11.70;;;;;;;10.65;97.06;101719.75;5011917;28;20201;-77
2022/11/10 04:32:09;;;;;;;22.03;12.43;;;;;;;10.71;97.04;101724.22;5014828;28;20271;-77
2022/11/10 04:34:53;;;;;;;17.70;11.77;;;;;;;10.72;97.17;101726.84;5013355;28;20302;-76
2022/11/10 04:37:37;;;;;;;24.10;11.43;;;;;;;10.69;96.83;101716.47;5019847;28;20213;-77
2022/11/10 04:40:21;;;;;;;21.23;11.40;;;;;;;10.70;97.28;101722.50;5008063;28;20719;-76
2022/11/10 04:43:05;;;;;;;20.57;11.20;;;;;;;10.76;96.98;101725.25;5012300;28;20260;-76
2022/11/10 04:45:49;;;;;;;19.83;12.17;;;;;;;10.79;96.81;101730.47;5015787;28;20238;-78
2022/11/10 04:48:34;;;;;;;16.20;10.33;;;;;;;10.78;96.72;101729.59;5016760;28;20202;-77
2022/11/10 04:51:21;;;;;;;20.10;11.27;;;;;;;10.76;96.65;101727.81;5016547;28;20226;-78
2022/11/10 04:54:06;;;;;;;19.53;11.57;;;;;;;10.73;96.68;101726.00;5017796;28;20322;-77
2022/11/10 04:56:51;;;;;;;16.67;10.83;;;;;;;10.75;96.85;101733.75;5016162;28;20210;-77
2022/11/10 04:59:34;;;;;;;21.43;10.90;;;;;;;10.73;96.91;101733.69;5017648;28;20268;-78
2022/11/10 05:02:19;;;;;;;17.40;10.50;;;;;;;10.75;96.73;101751.69;5017453;28;20186;-78
2022/11/10 05:05:03;;;;;;;19.63;10.50;;;;;;;10.74;96.73;101744.84;5017790;28;20284;-77
2022/11/10 05:07:47;;;;;;;21.07;10.50;;;;;;;10.72;96.67;101755.03;5014914;28;20210;-78
2022/11/10 05:10:33;;;;;;;18.27;10.60;;;;;;;10.71;97.04;101757.53;5014865;28;20836;-77
2022/11/10 05:13:17;;;;;;;22.57;10.67;;;;;;;10.72;97.00;101762.69;5019286;28;20234;-78
2022/11/10 05:16:01;;;;;;;20.00;10.77;;;;;;;10.70;96.60;101759.19;5019238;28;20213;-77
2022/11/10 05:18:45;;;;;;;19.70;10.50;;;;;;;10.68;96.86;101759.97;5018815;28;20234;-78
2022/11/10 05:21:29;;;;;;;19.53;10.37;;;;;;;10.71;96.76;101772.91;5019350;28;20230;-78
2022/11/10 05:24:13;;;;;;;17.20;9.87;;;;;;;10.72;96.51;101783.19;5018145;28;20260;-77
2022/11/10 05:26:58;;;;;;;18.60;10.40;;;;;;;10.67;96.63;101778.72;5017358;28;20237;-78
2022/11/10 05:29:42;;;;;;;19.80;11.17;;;;;;;10.62;96.87;101778.59;5016472;28;20332;-78
2022/11/10 05:32:26;;;;;;;20.30;10.07;;;;;;;10.59;97.10;101781.03;5016976;28;20286;-77
2022/11/10 05:35:10;;;;;;;18.07;10.80;;;;;;;10.53;97.34;101785.97;5014791;28;20217;-78
2022/11/10 05:37:54;;;;;;;18.00;10.43;;;;;;;10.48;97.15;101784.03;5022865;28;20202;-77
2022/11/10 05:40:38;;;;;;;22.40;10.63;;;;;;;10.44;97.90;101795.88;5018871;28;20334;-77
2022/11/10 05:43:22;;;;;;;20.40;11.13;;;;;;;10.39;97.27;101796.53;5017941;28;20316;-76
2022/11/10 05:46:06;;;;;;;21.97;11.23;;;;;;;10.35;97.82;101798.13;5016513;28;20182;-78
2022/11/10 05:48:50;;;;;;;23.93;10.90;;;;;;;10.29;97.78;101807.25;5010272;28;20226;-77
2022/11/10 05:51:34;;;;;;;20.30;10.97;;;;;;;10.27;97.84;101811.47;5016836;28;20213;-77
2022/11/10 05:54:18;;;;;;;18.13;10.60;;;;;;;10.24;97.97;101811.34;5014338;28;20213;-77
2022/11/10 05:57:02;;;;;;;23.20;11.20;;;;;;;10.18;98.17;101808.56;5017110;28;20279;-77
2022/11/10 05:59:46;;;;;;;22.47;11.13;;;;;;;10.16;98.24;101818.75;5016440;28;20198;-76
2022/11/10 06:02:30;;;;;;;21.00;11.40;;;;;;;10.13;98.91;101826.31;5016406;28;20222;-78
2022/11/10 06:05:15;;;;;;;22.60;11.40;;;;;;;10.09;98.61;101826.16;5015905;28;20597;-77
2022/11/10 06:07:59;;;;;;;21.70;11.20;;;;;;;10.07;99.05;101826.09;5017327;28;20205;-77
2022/11/10 06:10:44;;;;;;;24.03;12.30;;;;;;;10.05;98.97;101839.63;5016908;28;20193;-77
2022/11/10 06:13:28;;;;;;;26.20;11.33;;;;;;;10.04;99.14;101837.88;5016813;28;20860;-77
2022/11/10 06:16:12;;;;;;;20.10;11.67;;;;;;;10.00;99.17;101846.25;5015817;28;20222;-77
2022/11/10 06:18:56;;;;;;;20.10;10.47;;;;;;;9.98;98.98;101851.28;5011627;28;20714;-77
2022/11/10 06:21:40;;;;;;;21.47;11.37;;;;;;;9.93;99.23;101864.72;5008943;28;20206;-77
2022/11/10 06:24:24;;;;;;;22.57;11.10;;;;;;;9.92;99.66;101871.53;5015288;28;20233;-78
2022/11/10 06:27:08;;;;;;;23.60;11.80;;;;;;;9.91;99.75;101880.00;5012811;28;20233;-77
2022/11/10 06:29:52;;;;;;;22.23;11.37;;;;;;;9.90;99.78;101885.94;5020216;28;20210;-78
2022/11/10 06:32:36;;;;;;;22.67;10.83;;;;;;;9.88;99.67;101884.13;5021516;28;20214;-78
2022/11/10 06:35:21;;;;;;;19.90;10.43;;;;;;;9.88;99.25;101900.38;5017534;28;20261;-78
2022/11/10 06:38:10;;;;;;;25.87;10.80;;;;;;;9.88;99.70;101912.28;5016379;28;20205;-77
2022/11/10 06:40:53;;;;;;;21.53;10.63;;;;;;;9.84;99.38;101916.41;5020779;28;20195;-77
2022/11/10 06:43:37;;;;;;;24.93;11.33;;;;;;;9.83;99.20;101921.47;5016678;28;20233;-78
2022/11/10 06:46:21;;;;;;;26.40;11.60;;;;;;;9.82;99.61;101929.94;5021987;28;20210;-77
2022/11/10 06:49:05;;;;;;;21.50;11.10;;;;;;;9.83;99.45;101935.13;5014711;28;20189;-77
2022/11/10 06:51:50;;;;;;;22.67;11.37;;;;;;;9.89;99.38;101939.59;5020908;28;20206;-77
2022/11/10 06:54:34;;;;;;;20.03;10.40;;;;;;;9.94;99.51;101943.22;5017499;28;20723;-77
2022/11/10 06:57:18;;;;;;;20.13;10.30;;;;;;;10.02;99.34;101947.84;5019417;28;20194;-77
2022/11/10 07:00:03;;;;;;;22.67;10.90;;;;;;;10.05;98.74;101953.09;5019857;28;20210;-77
2022/11/10 07:02:47;;;;;;;19.90;10.43;;;;;;;10.11;98.95;101950.78;5019817;28;20206;-77
2022/11/10 07:05:34;;;;;;;19.33;10.73;;;;;;;10.10;98.62;101953.28;5018538;28;20277;-77
2022/11/10 07:08:18;;;;;;;22.37;11.47;;;;;;;10.08;98.89;101963.44;5019530;28;20728;-77
2022/11/10 07:11:01;;;;;;;22.93;11.17;;;;;;;10.08;98.58;101958.34;5015040;28;20206;-77
2022/11/10 07:13:45;;;;;;;25.60;10.93;;;;;;;10.07;98.80;101959.16;5018998;28;20229;-77
2022/11/10 07:16:29;;;;;;;19.67;11.03;;;;;;;10.07;99.23;101976.19;5017154;28;20695;-78
2022/11/10 07:19:13;;;;;;;20.77;11.27;;;;;;;10.05;98.73;101962.47;5018776;28;20692;-78
2022/11/10 07:21:57;;;;;;;20.40;11.03;;;;;;;10.07;98.88;101983.84;5020196;28;20202;-77
2022/11/10 07:24:41;;;;;;;19.57;10.57;;;;;;;10.06;98.61;101984.66;5017625;28;20233;-78
2022/11/10 07:27:25;;;;;;;21.97;10.70;;;;;;;10.05;99.41;101994.03;5019649;28;20286;-77
2022/11/10 07:30:10;;;;;;;23.57;10.87;;;;;;;9.99;99.33;101990.31;5017605;28;20213;-78
2022/11/10 07:33:05;;;;;;;21.93;10.33;;;;;;;9.99;99.14;102000.53;5017106;28;20194;-76
2022/11/10 07:35:55;;;;;;;23.83;11.37;;;;;;;9.98;99.37;102004.81;5015005;28;20666;-76
2022/11/10 07:38:39;;;;;;;21.13;10.67;;;;;;;9.97;99.13;102005.63;5013837;28;20703;-77
2022/11/10 07:41:23;;;;;;;21.33;12.20;;;;;;;10.01;99.35;102015.19;5014574;28;20230;-76
2022/11/10 07:44:07;;;;;;;23.97;12.43;;;;;;;10.13;98.85;102025.91;5008985;28;20280;-77
2022/11/10 07:46:51;;;;;;;24.30;11.93;;;;;;;10.18;98.66;102028.69;5014123;28;20233;-77
2022/11/10 07:49:35;;;;;;;21.37;12.60;;;;;;;10.28;98.87;102025.66;5018877;28;20202;-78
2022/11/10 07:52:19;;;;;;;26.10;12.80;;;;;;;10.34;98.49;102024.22;5014870;28;20266;-78
2022/11/10 07:55:05;;;;;;;26.10;12.60;;;;;;;10.42;98.98;102029.63;5019043;28;20302;-78
2022/11/10 07:57:49;;;;;;;25.13;12.23;;;;;;;10.47;98.31;102036.66;5014534;28;20222;-77
2022/11/10 08:00:34;;;;;;;22.00;12.73;;;;;;;10.57;98.35;102049.03;5017763;28;20194;-77
2022/11/10 08:03:20;;;;;;;26.13;13.50;;;;;;;10.65;97.94;102054.44;5014935;28;20202;-77
2022/11/10 08:06:04;;;;;;;21.57;13.23;;;;;;;10.64;97.80;102048.44;5014168;28;20265;-78
2022/11/10 08:08:47;;;;;;;28.70;12.87;;;;;;;10.78;97.71;102054.09;5013245;28;20213;-77
2022/11/10 08:11:31;;;;;;;27.97;14.20;;;;;;;10.80;97.25;102053.34;5007331;28;20197;-76
2022/11/10 08:14:15;;;;;;;20.60;13.17;;;;;;;10.77;97.84;102055.78;5009758;28;20245;-77
2022/11/10 08:17:00;;;;;;;23.43;13.80;;;;;;;10.78;98.01;102062.63;5013495;28;20679;-77
2022/11/10 08:19:43;;;;;;;23.83;14.13;;;;;;;10.78;97.78;102065.19;5010195;28;20280;-78
2022/11/10 08:22:27;;;;;;;29.07;14.93;;;;;;;10.79;98.12;102066.09;5015850;28;20679;-78
2022/11/10 08:25:11;;;;;;;26.50;14.77;;;;;;;10.83;97.63;102080.78;5012872;28;20257;-78
2022/11/10 08:28:00;;;;;;;30.87;14.37;;;;;;;10.85;97.49;102074.00;5011727;28;20202;-77
2022/11/10 08:30:47;;;;;;;28.07;14.27;;;;;;;10.90;97.94;102075.03;5014180;28;20214;-78
2022/11/10 08:33:31;;;;;;;27.37;14.27;;;;;;;10.94;97.62;102071.78;5012781;28;20243;-77
2022/11/10 08:36:14;;;;;;;22.87;14.10;;;;;;;10.94;97.73;102084.59;5011872;28;20210;-78
2022/11/10 08:38:58;;;;;;;24.60;14.03;;;;;;;10.99;97.68;102096.78;5011643;28;20191;-76
2022/11/10 08:41:42;;;;;;;26.33;14.57;;;;;;;11.05;97.25;102086.75;5010333;28;20676;-76
2022/11/10 08:44:26;;;;;;;23.93;13.57;;;;;;;11.06;97.68;102096.19;5012713;28;20848;-78
2022/11/10 08:47:10;;;;;;;24.30;13.53;;;;;;;11.14;97.25;102092.22;5009903;28;20198;-77
2022/11/10 08:49:54;;;;;;;31.00;15.27;;;;;;;11.11;97.19;102104.06;5011494;28;20226;-77
2022/11/10 08:52:38;;;;;;;26.97;14.97;;;;;;;11.15;97.25;102096.53;5004958;28;20268;-77
2022/11/10 08:55:22;;;;;;;26.00;15.47;;;;;;;11.22;96.79;102107.88;5012124;28;20306;-76
2022/11/10 08:58:12;;;;;;;29.47;15.60;;;;;;;11.33;96.54;102099.75;5011191;28;20230;-77
2022/11/10 09:00:57;;;;;;;30.70;16.33;;;;;;;11.44;95.74;102093.34;5009907;28;20198;-77
2022/11/10 09:03:41;;;;;;;29.23;15.30;;;;;;;11.45;95.93;102100.22;5007360;28;20225;-76
2022/11/10 09:06:24;;;;;;;26.20;14.87;;;;;;;11.42;95.94;102115.47;5012499;28;20201;-78
2022/11/10 09:09:09;;;;;;;24.73;15.13;;;;;;;11.42;95.90;102112.91;5015543;28;20245;-77
2022/11/10 09:11:53;;;;;;;25.30;15.87;;;;;;;11.55;95.33;102107.41;5011923;28;20202;-76
2022/11/10 09:14:37;;;;;;;28.10;14.93;;;;;;;11.66;95.37;102108.69;5012841;28;20205;-76
2022/11/10 09:17:21;;;;;;;25.00;14.57;;;;;;;11.65;94.28;102106.06;5010847;28;20218;-76
2022/11/10 09:20:07;;;;;;;26.40;14.63;;;;;;;11.66;94.71;102112.97;5011375;28;20620;-77
2022/11/10 09:22:51;;;;;;;29.57;15.07;;;;;;;11.62;94.56;102122.22;5011741;28;20205;-78
2022/11/10 09:25:35;;;;;;;28.17;15.63;;;;;;;11.60;95.24;102125.56;5012816;28;20772;-78
2022/11/10 09:28:20;;;;;;;26.80;15.87;;;;;;;11.63;95.14;102128.25;5015160;28;20194;-74
2022/11/10 09:31:03;;;;;;;22.47;14.13;;;;;;;11.65;94.96;102132.59;5012566;28;20730;-77
2022/11/10 09:33:48;;;;;;;25.13;14.70;;;;;;;11.78;94.53;102134.78;5009250;28;20276;-76
2022/11/10 09:36:31;;;;;;;25.73;14.90;;;;;;;11.89;94.42;102143.72;5013323;28;20201;-75
2022/11/10 09:39:18;;;;;;;22.20;13.47;;;;;;;11.91;93.63;102152.38;4975209;28;20239;-74
2022/11/10 09:42:28;;;;;;;29.50;14.63;;;;;;;11.87;93.73;102142.81;4990807;28;20191;-74
2022/11/10 09:45:27;;;;;;;27.17;14.67;;;;;;;12.13;92.45;102148.84;4990461;28;20253;-77
2022/11/10 09:48:29;;;;;;;23.47;13.70;;;;;;;12.28;91.71;102164.75;4988836;28;20632;-76
2022/11/10 09:51:22;;;;;;;21.47;12.93;;;;;;;12.34;91.69;102167.53;4991577;28;20214;-76
2022/11/10 09:54:31;;;;;;;20.73;13.13;;;;;;;12.31;91.71;102160.59;4987873;28;20702;-76
2022/11/10 09:57:20;;;;;;;22.93;13.27;;;;;;;12.62;89.41;102153.06;4987777;28;20286;-76
2022/11/10 10:00:05;;;;;;;27.00;13.20;;;;;;;12.37;90.18;102165.06;4989564;28;20202;-77
2022/11/10 10:02:54;;;;;;;19.80;12.50;;;;;;;12.48;90.86;102149.19;4984093;28;20254;-74
2022/11/10 10:06:05;;;;;;;18.40;11.37;;;;;;;12.81;88.89;102160.53;4990463;28;20739;-75
2022/11/10 10:08:54;;;;;;;20.87;11.23;;;;;;;12.72;89.17;102162.81;4992902;28;20191;-76
2022/11/10 10:11:50;;;;;;;21.60;10.97;;;;;;;12.93;87.95;102168.63;4991646;28;20609;-76
2022/11/10 10:15:22;;;;;;;17.40;10.10;;;;;;;13.04;86.66;102163.88;4990344;28;20254;-75
2022/11/10 10:18:06;;;;;;;19.13;10.30;;;;;;;13.64;83.86;102147.66;4990865;28;20334;-76
2022/11/10 10:21:22;;;;;;;15.07;9.97;;;;;;;13.05;85.80;102173.31;4984883;28;20259;-76
2022/11/10 10:24:19;;;;;;;25.17;10.73;;;;;;;13.14;85.82;102173.59;4986145;28;20234;-76
2022/11/10 10:27:08;;;;;;;20.73;9.93;;;;;;;13.26;85.51;102162.81;4987301;28;20274;-76
2022/11/10 10:29:53;;;;;;;19.87;10.00;;;;;;;13.08;84.94;102175.13;4989815;28;20211;-76
2022/11/10 10:32:37;;;;;;;16.53;9.93;;;;;;;12.85;87.19;102179.50;4990969;28;20199;-75
2022/11/10 10:35:21;;;;;;;19.97;9.43;;;;;;;13.04;87.03;102183.56;4990279;28;20230;-75
2022/11/10 10:38:30;;;;;;;19.00;8.67;;;;;;;13.23;86.35;102188.44;4980315;28;20238;-77
2022/11/10 10:41:24;;;;;;;14.10;9.03;;;;;;;13.07;86.53;102181.94;4987397;28;20639;-76
2022/11/10 10:44:17;;;;;;;21.13;9.03;;;;;;;13.06;86.58;102187.91;4989613;28;20298;-74
2022/11/10 10:47:01;;;;;;;17.40;9.87;;;;;;;12.91;86.69;102187.41;4990697;28;20199;-76
2022/11/10 10:49:45;;;;;;;20.33;8.77;;;;;;;13.50;85.69;102185.00;4987733;28;20237;-76
2022/11/10 10:52:30;;;;;;;17.20;8.30;;;;;;;13.78;82.51;102176.31;4989107;28;20198;-77
2022/11/10 10:55:14;;;;;;;16.73;7.97;;;;;;;13.82;82.58;102185.88;4989999;28;20218;-76
2022/11/10 10:58:20;;;;;;;14.57;7.63;;;;;;;14.04;83.23;102183.06;4988473;28;20581;-75
2022/11/10 11:01:23;;;;;;;16.50;7.73;;;;;;;14.25;80.82;102192.28;4984827;28;20259;-74
2022/11/10 11:04:25;;;;;;;15.13;6.53;;;;;;;17.80;66.32;102174.16;4984492;28;20222;-76
2022/11/10 11:07:22;;;;;;;20.27;7.33;;;;;;;15.20;73.79;102194.59;4990390;28;20241;-76
2022/11/10 11:10:42;;;;;;;14.93;7.30;;;;;;;14.65;77.98;102189.84;4985187;28;20194;-77
2022/11/10 11:13:27;;;;;;;16.23;7.90;;;;;;;14.65;78.46;102194.16;4993404;28;20783;-75
2022/11/10 11:16:11;;;;;;;17.23;7.70;;;;;;;14.36;78.52;102184.81;4988935;28;20884;-76
2022/11/10 11:18:55;;;;;;;17.43;6.60;;;;;;;14.53;77.49;102188.69;4986621;28;20613;-77
2022/11/10 11:21:54;;;;;;;18.23;6.87;;;;;;;14.65;78.98;102192.41;4995123;28;20187;-76
2022/11/10 11:24:44;;;;;;;16.90;6.57;;;;;;;15.88;73.80;102184.03;4993857;28;20231;-77
2022/11/10 11:27:32;;;;;;;16.83;6.03;;;;;;;15.71;72.70;102196.59;4993709;28;20207;-77
2022/11/10 11:30:17;;;;;;;17.20;6.80;;;;;;;14.82;76.60;102191.13;4983354;28;20588;-77
2022/11/10 11:33:30;;;;;;;15.23;6.47;;;;;;;14.56;77.50;102206.81;4977590;28;20214;-76
2022/11/10 11:36:33;;;;;;;13.13;6.30;;;;;;;16.25;70.54;102202.81;4993538;28;20283;-76
2022/11/10 11:39:40;;;;;;;12.47;5.73;;;;;;;15.25;74.05;102213.63;4977816;28;20230;-75
2022/11/10 11:42:49;;;;;;;18.57;6.40;;;;;;;14.66;77.35;102206.19;4991312;28;20246;-75
2022/11/10 11:45:54;;;;;;;11.23;6.53;;;;;;;14.73;77.47;102224.44;4989599;28;20219;-76
2022/11/10 11:48:51;;;;;;;14.93;6.73;;;;;;;14.27;78.57;102230.97;4990085;28;20667;-76
2022/11/10 11:51:43;;;;;;;15.43;6.97;;;;;;;14.23;79.51;102216.25;4988173;28;20260;-76
2022/11/10 11:54:33;;;;;;;14.17;6.50;;;;;;;14.28;79.72;102219.81;4993542;28;20294;-78
2022/11/10 11:57:44;;;;;;;16.83;6.70;;;;;;;14.14;79.97;102226.28;4993158;28;20187;-77
2022/11/10 12:00:34;;;;;;;15.33;5.87;;;;;;;14.19;79.92;102232.44;5008096;28;20195;-77
2022/11/10 12:04:03;;;;;;;16.53;6.37;;;;;;;14.07;79.28;102224.34;4994811;28;20259;-77
2022/11/10 12:07:07;;;;;;;16.40;6.47;;;;;;;14.64;77.00;102231.94;4994918;28;20250;-77
2022/11/10 12:10:08;;;;;;;15.63;5.77;;;;;;;14.27;78.80;102244.69;4991594;28;20684;-74
2022/11/10 12:13:09;;;;;;;18.17;5.90;;;;;;;14.07;79.19;102239.81;4993048;28;20265;-77
2022/11/10 12:16:10;;;;;;;14.50;5.47;;;;;;;13.98;80.36;102243.00;4991403;28;20671;-76
2022/11/10 12:19:03;;;;;;;13.67;6.10;;;;;;;13.85;81.34;102242.63;4992341;28;20695;-75
2022/11/10 12:21:54;;;;;;;15.77;6.37;;;;;;;13.87;81.42;102239.28;4997304;28;20206;-76
2022/11/10 12:24:45;;;;;;;17.10;5.87;;;;;;;13.83;80.97;102242.59;4984738;28;20231;-77
2022/11/10 12:27:37;;;;;;;15.90;5.20;;;;;;;13.96;81.60;102249.84;4991369;28;20207;-77
2022/11/10 12:30:21;;;;;;;16.10;5.80;;;;;;;13.83;81.50;102244.28;4989734;28;20215;-74
2022/11/10 12:33:16;;;;;;;15.17;5.63;;;;;;;13.78;81.25;102243.28;5000638;28;20241;-75
2022/11/10 12:36:06;;;;;;;17.93;5.67;;;;;;;13.89;82.27;102242.75;5014078;28;20678;-76
2022/11/10 12:39:02;;;;;;;11.83;5.70;;;;;;;14.44;78.96;102221.94;5018290;28;20277;-75
2022/11/10 12:41:54;;;;;;;16.10;5.27;;;;;;;14.88;76.79;102219.63;5014241;28;20683;-75
2022/11/10 12:44:51;;;;;;;15.63;5.37;;;;;;;14.74;76.13;102225.31;5017754;28;20277;-77
2022/11/10 12:47:40;;;;;;;13.07;4.87;;;;;;;16.58;71.69;102213.78;5014783;28;20572;-77
2022/11/10 12:50:37;;;;;;;11.60;4.37;;;;;;;19.91;56.83;102206.09;5018855;28;20726;-76
2022/11/10 12:53:37;;;;;;;11.77;4.80;;;;;;;16.87;65.64;102227.22;5021882;28;20205;-77
2022/11/10 12:56:25;;;;;;;15.60;4.60;;;;;;;16.96;67.33;102217.00;5022306;28;20202;-77
2022/11/10 12:59:30;;;;;;;14.07;4.27;;;;;;;16.01;70.08;102230.81;5021613;28;20198;-76